sensor_id;sensor_type;location;lat;lon;timestamp;P1;durP1;ratioP1;P2;durP2;ratioP2
55465;SDS011;41329;41.594;23.810;2023-08-01T00:02:20;8.85;;;8.25;;
55465;SDS011;41329;41.594;23.810;2023-08-01T00:04:45;8.93;;;8.43;;
55465;SDS011;41329;41.594;23.810;2023-08-01T00:07:11;9.02;;;8.45;;
55465;SDS011;41329;41.594;23.810;2023-08-01T00:09:36;11.07;;;10.18;;
55465;SDS011;41329;41.594;23.810;2023-08-01T00:12:01;8.75;;;8.15;;
55465;SDS011;41329;41.594;23.810;2023-08-01T00:14:27;9.15;;;8.52;;
55465;SDS011;41329;41.594;23.810;2023-08-01T00:16:52;8.77;;;7.68;;
55465;SDS011;41329;41.594;23.810;2023-08-01T00:19:18;8.13;;;7.57;;
55465;SDS011;41329;41.594;23.810;2023-08-01T00:21:43;7.85;;;7.35;;
55465;SDS011;41329;41.594;23.810;2023-08-01T00:24:09;8.23;;;7.82;;
55465;SDS011;41329;41.594;23.810;2023-08-01T00:26:34;9.10;;;8.50;;
55465;SDS011;41329;41.594;23.810;2023-08-01T00:29:00;9.57;;;8.73;;
55465;SDS011;41329;41.594;23.810;2023-08-01T00:31:26;13.32;;;9.60;;
55465;SDS011;41329;41.594;23.810;2023-08-01T00:33:51;10.20;;;9.25;;
55465;SDS011;41329;41.594;23.810;2023-08-01T00:36:16;10.57;;;9.88;;
55465;SDS011;41329;41.594;23.810;2023-08-01T00:38:42;10.27;;;9.57;;
55465;SDS011;41329;41.594;23.810;2023-08-01T00:41:08;9.90;;;9.00;;
55465;SDS011;41329;41.594;23.810;2023-08-01T00:43:34;10.15;;;9.52;;
55465;SDS011;41329;41.594;23.810;2023-08-01T00:46:00;8.32;;;7.82;;
55465;SDS011;41329;41.594;23.810;2023-08-01T00:48:28;7.95;;;7.47;;
55465;SDS011;41329;41.594;23.810;2023-08-01T00:50:54;8.55;;;8.05;;
55465;SDS011;41329;41.594;23.810;2023-08-01T00:53:21;8.63;;;8.10;;
55465;SDS011;41329;41.594;23.810;2023-08-01T00:55:47;8.95;;;8.45;;
55465;SDS011;41329;41.594;23.810;2023-08-01T00:58:13;8.65;;;8.18;;
55465;SDS011;41329;41.594;23.810;2023-08-01T01:00:38;8.73;;;8.05;;
55465;SDS011;41329;41.594;23.810;2023-08-01T01:03:04;8.25;;;7.85;;
55465;SDS011;41329;41.594;23.810;2023-08-01T01:05:35;8.32;;;7.85;;
55465;SDS011;41329;41.594;23.810;2023-08-01T01:08:03;8.98;;;8.38;;
55465;SDS011;41329;41.594;23.810;2023-08-01T01:10:30;8.98;;;8.27;;
55465;SDS011;41329;41.594;23.810;2023-08-01T01:12:56;8.23;;;7.72;;
55465;SDS011;41329;41.594;23.810;2023-08-01T01:15:21;7.93;;;7.50;;
55465;SDS011;41329;41.594;23.810;2023-08-01T01:17:47;9.07;;;8.57;;
55465;SDS011;41329;41.594;23.810;2023-08-01T01:20:12;7.95;;;7.55;;
55465;SDS011;41329;41.594;23.810;2023-08-01T01:22:38;7.93;;;7.40;;
55465;SDS011;41329;41.594;23.810;2023-08-01T01:25:07;9.15;;;8.65;;
55465;SDS011;41329;41.594;23.810;2023-08-01T01:27:34;8.80;;;8.10;;
55465;SDS011;41329;41.594;23.810;2023-08-01T01:30:02;8.43;;;8.00;;
55465;SDS011;41329;41.594;23.810;2023-08-01T01:32:29;7.35;;;6.93;;
55465;SDS011;41329;41.594;23.810;2023-08-01T01:34:55;9.80;;;9.10;;
55465;SDS011;41329;41.594;23.810;2023-08-01T01:37:21;9.55;;;8.68;;
55465;SDS011;41329;41.594;23.810;2023-08-01T01:39:46;10.05;;;9.30;;
55465;SDS011;41329;41.594;23.810;2023-08-01T01:42:11;8.73;;;8.20;;
55465;SDS011;41329;41.594;23.810;2023-08-01T01:44:38;12.07;;;10.98;;
55465;SDS011;41329;41.594;23.810;2023-08-01T01:47:04;11.23;;;10.18;;
55465;SDS011;41329;41.594;23.810;2023-08-01T01:49:29;11.20;;;10.18;;
55465;SDS011;41329;41.594;23.810;2023-08-01T01:51:55;11.95;;;10.23;;
55465;SDS011;41329;41.594;23.810;2023-08-01T01:54:20;11.48;;;10.73;;
55465;SDS011;41329;41.594;23.810;2023-08-01T01:56:46;11.32;;;10.38;;
55465;SDS011;41329;41.594;23.810;2023-08-01T01:59:12;10.95;;;10.07;;
55465;SDS011;41329;41.594;23.810;2023-08-01T02:01:37;12.88;;;10.30;;
55465;SDS011;41329;41.594;23.810;2023-08-01T02:04:02;10.23;;;9.55;;
55465;SDS011;41329;41.594;23.810;2023-08-01T02:06:28;10.57;;;9.68;;
55465;SDS011;41329;41.594;23.810;2023-08-01T02:08:53;10.05;;;9.45;;
55465;SDS011;41329;41.594;23.810;2023-08-01T02:11:19;10.65;;;9.57;;
55465;SDS011;41329;41.594;23.810;2023-08-01T02:13:44;9.60;;;8.90;;
55465;SDS011;41329;41.594;23.810;2023-08-01T02:16:10;9.30;;;8.80;;
55465;SDS011;41329;41.594;23.810;2023-08-01T02:18:35;10.93;;;10.32;;
55465;SDS011;41329;41.594;23.810;2023-08-01T02:21:01;11.75;;;10.77;;
55465;SDS011;41329;41.594;23.810;2023-08-01T02:23:27;10.48;;;9.88;;
55465;SDS011;41329;41.594;23.810;2023-08-01T02:25:52;9.82;;;9.20;;
55465;SDS011;41329;41.594;23.810;2023-08-01T02:28:18;10.35;;;9.65;;
55465;SDS011;41329;41.594;23.810;2023-08-01T02:30:43;11.52;;;10.82;;
55465;SDS011;41329;41.594;23.810;2023-08-01T02:33:08;10.55;;;9.95;;
55465;SDS011;41329;41.594;23.810;2023-08-01T02:35:34;10.57;;;9.98;;
55465;SDS011;41329;41.594;23.810;2023-08-01T02:37:59;9.85;;;9.25;;
55465;SDS011;41329;41.594;23.810;2023-08-01T02:40:25;9.88;;;9.30;;
55465;SDS011;41329;41.594;23.810;2023-08-01T02:42:51;11.63;;;10.88;;
55465;SDS011;41329;41.594;23.810;2023-08-01T02:45:17;9.20;;;8.38;;
55465;SDS011;41329;41.594;23.810;2023-08-01T02:47:42;10.82;;;10.23;;
55465;SDS011;41329;41.594;23.810;2023-08-01T02:50:08;10.75;;;10.02;;
55465;SDS011;41329;41.594;23.810;2023-08-01T02:52:33;11.32;;;10.60;;
55465;SDS011;41329;41.594;23.810;2023-08-01T02:54:58;10.93;;;10.35;;
55465;SDS011;41329;41.594;23.810;2023-08-01T02:57:24;10.13;;;9.52;;
55465;SDS011;41329;41.594;23.810;2023-08-01T02:59:49;10.25;;;9.43;;
55465;SDS011;41329;41.594;23.810;2023-08-01T03:02:15;9.65;;;9.15;;
55465;SDS011;41329;41.594;23.810;2023-08-01T03:04:40;10.48;;;9.68;;
55465;SDS011;41329;41.594;23.810;2023-08-01T03:07:05;10.45;;;9.85;;
55465;SDS011;41329;41.594;23.810;2023-08-01T03:09:32;11.20;;;10.50;;
55465;SDS011;41329;41.594;23.810;2023-08-01T03:11:57;10.65;;;10.07;;
55465;SDS011;41329;41.594;23.810;2023-08-01T03:14:23;10.60;;;9.95;;
55465;SDS011;41329;41.594;23.810;2023-08-01T03:16:48;10.13;;;9.27;;
55465;SDS011;41329;41.594;23.810;2023-08-01T03:19:13;9.95;;;9.35;;
55465;SDS011;41329;41.594;23.810;2023-08-01T03:21:39;9.57;;;9.07;;
55465;SDS011;41329;41.594;23.810;2023-08-01T03:24:05;10.15;;;9.65;;
55465;SDS011;41329;41.594;23.810;2023-08-01T03:26:34;10.77;;;10.18;;
55465;SDS011;41329;41.594;23.810;2023-08-01T03:29:01;9.57;;;8.88;;
55465;SDS011;41329;41.594;23.810;2023-08-01T03:31:27;10.00;;;9.40;;
55465;SDS011;41329;41.594;23.810;2023-08-01T03:33:52;9.88;;;9.30;;
55465;SDS011;41329;41.594;23.810;2023-08-01T03:36:18;10.63;;;10.02;;
55465;SDS011;41329;41.594;23.810;2023-08-01T03:38:43;10.00;;;9.40;;
55465;SDS011;41329;41.594;23.810;2023-08-01T03:41:08;10.50;;;9.93;;
55465;SDS011;41329;41.594;23.810;2023-08-01T03:43:34;9.68;;;9.07;;
55465;SDS011;41329;41.594;23.810;2023-08-01T03:46:00;10.50;;;9.90;;
55465;SDS011;41329;41.594;23.810;2023-08-01T03:48:26;10.90;;;10.10;;
55465;SDS011;41329;41.594;23.810;2023-08-01T03:50:51;11.40;;;10.70;;
55465;SDS011;41329;41.594;23.810;2023-08-01T03:53:16;12.50;;;11.52;;
55465;SDS011;41329;41.594;23.810;2023-08-01T03:55:43;10.77;;;10.18;;
55465;SDS011;41329;41.594;23.810;2023-08-01T03:58:09;17.42;;;16.42;;
55465;SDS011;41329;41.594;23.810;2023-08-01T04:00:34;12.07;;;11.48;;
55465;SDS011;41329;41.594;23.810;2023-08-01T04:03:00;11.00;;;10.40;;
55465;SDS011;41329;41.594;23.810;2023-08-01T04:05:26;13.82;;;13.13;;
55465;SDS011;41329;41.594;23.810;2023-08-01T04:07:52;11.90;;;11.10;;
55465;SDS011;41329;41.594;23.810;2023-08-01T04:10:19;13.07;;;12.48;;
55465;SDS011;41329;41.594;23.810;2023-08-01T04:12:48;11.55;;;10.75;;
55465;SDS011;41329;41.594;23.810;2023-08-01T04:15:14;10.25;;;9.57;;
55465;SDS011;41329;41.594;23.810;2023-08-01T04:17:39;10.82;;;10.15;;
55465;SDS011;41329;41.594;23.810;2023-08-01T04:20:05;11.40;;;10.48;;
55465;SDS011;41329;41.594;23.810;2023-08-01T04:22:31;10.65;;;9.95;;
55465;SDS011;41329;41.594;23.810;2023-08-01T04:24:56;11.27;;;10.40;;
55465;SDS011;41329;41.594;23.810;2023-08-01T04:27:22;11.10;;;10.23;;
55465;SDS011;41329;41.594;23.810;2023-08-01T04:29:47;11.05;;;10.45;;
55465;SDS011;41329;41.594;23.810;2023-08-01T04:32:13;10.35;;;9.65;;
55465;SDS011;41329;41.594;23.810;2023-08-01T04:34:40;11.95;;;11.18;;
55465;SDS011;41329;41.594;23.810;2023-08-01T04:37:06;11.50;;;10.75;;
55465;SDS011;41329;41.594;23.810;2023-08-01T04:39:31;12.85;;;11.90;;
55465;SDS011;41329;41.594;23.810;2023-08-01T04:41:57;11.68;;;10.75;;
55465;SDS011;41329;41.594;23.810;2023-08-01T04:44:22;11.00;;;10.40;;
55465;SDS011;41329;41.594;23.810;2023-08-01T04:46:47;11.27;;;10.57;;
55465;SDS011;41329;41.594;23.810;2023-08-01T04:49:13;11.80;;;11.00;;
55465;SDS011;41329;41.594;23.810;2023-08-01T04:51:39;13.65;;;12.70;;
55465;SDS011;41329;41.594;23.810;2023-08-01T04:54:05;14.40;;;13.35;;
55465;SDS011;41329;41.594;23.810;2023-08-01T04:56:30;13.30;;;12.40;;
55465;SDS011;41329;41.594;23.810;2023-08-01T04:58:55;12.85;;;12.15;;
55465;SDS011;41329;41.594;23.810;2023-08-01T05:01:31;13.65;;;12.85;;
55465;SDS011;41329;41.594;23.810;2023-08-01T05:03:57;14.20;;;13.20;;
55465;SDS011;41329;41.594;23.810;2023-08-01T05:06:23;13.68;;;12.88;;
55465;SDS011;41329;41.594;23.810;2023-08-01T05:08:48;13.80;;;12.85;;
55465;SDS011;41329;41.594;23.810;2023-08-01T05:11:13;14.45;;;13.65;;
55465;SDS011;41329;41.594;23.810;2023-08-01T05:13:39;14.25;;;13.45;;
55465;SDS011;41329;41.594;23.810;2023-08-01T05:16:04;14.18;;;13.25;;
55465;SDS011;41329;41.594;23.810;2023-08-01T05:18:30;14.55;;;13.40;;
55465;SDS011;41329;41.594;23.810;2023-08-01T05:20:55;14.00;;;13.27;;
55465;SDS011;41329;41.594;23.810;2023-08-01T05:23:20;13.95;;;12.98;;
55465;SDS011;41329;41.594;23.810;2023-08-01T05:25:46;16.23;;;14.90;;
55465;SDS011;41329;41.594;23.810;2023-08-01T05:28:11;15.70;;;14.57;;
55465;SDS011;41329;41.594;23.810;2023-08-01T05:30:37;16.52;;;15.18;;
55465;SDS011;41329;41.594;23.810;2023-08-01T05:33:02;16.48;;;15.18;;
55465;SDS011;41329;41.594;23.810;2023-08-01T05:35:28;16.75;;;15.15;;
55465;SDS011;41329;41.594;23.810;2023-08-01T05:37:53;18.38;;;17.25;;
55465;SDS011;41329;41.594;23.810;2023-08-01T05:40:18;17.52;;;16.52;;
55465;SDS011;41329;41.594;23.810;2023-08-01T05:42:44;19.65;;;18.45;;
55465;SDS011;41329;41.594;23.810;2023-08-01T05:45:09;18.15;;;16.95;;
55465;SDS011;41329;41.594;23.810;2023-08-01T05:47:36;19.27;;;17.75;;
55465;SDS011;41329;41.594;23.810;2023-08-01T05:50:02;22.38;;;20.45;;
55465;SDS011;41329;41.594;23.810;2023-08-01T05:52:29;19.27;;;18.17;;
55465;SDS011;41329;41.594;23.810;2023-08-01T05:54:55;20.38;;;18.92;;
55465;SDS011;41329;41.594;23.810;2023-08-01T05:57:20;20.38;;;18.42;;
55465;SDS011;41329;41.594;23.810;2023-08-01T05:59:46;17.30;;;16.15;;
55465;SDS011;41329;41.594;23.810;2023-08-01T06:02:11;19.08;;;17.73;;
55465;SDS011;41329;41.594;23.810;2023-08-01T06:04:36;18.55;;;17.35;;
55465;SDS011;41329;41.594;23.810;2023-08-01T06:07:03;17.52;;;16.40;;
55465;SDS011;41329;41.594;23.810;2023-08-01T06:09:29;17.45;;;16.25;;
55465;SDS011;41329;41.594;23.810;2023-08-01T06:11:55;17.15;;;15.75;;
55465;SDS011;41329;41.594;23.810;2023-08-01T06:14:20;15.73;;;14.73;;
55465;SDS011;41329;41.594;23.810;2023-08-01T06:16:45;15.18;;;14.23;;
55465;SDS011;41329;41.594;23.810;2023-08-01T06:19:11;16.65;;;15.75;;
55465;SDS011;41329;41.594;23.810;2023-08-01T06:21:36;16.60;;;15.40;;
55465;SDS011;41329;41.594;23.810;2023-08-01T06:24:02;14.82;;;13.90;;
55465;SDS011;41329;41.594;23.810;2023-08-01T06:26:27;11.88;;;11.18;;
55465;SDS011;41329;41.594;23.810;2023-08-01T06:28:53;12.30;;;11.45;;
55465;SDS011;41329;41.594;23.810;2023-08-01T06:31:21;10.18;;;9.57;;
55465;SDS011;41329;41.594;23.810;2023-08-01T06:33:46;9.40;;;8.90;;
55465;SDS011;41329;41.594;23.810;2023-08-01T06:36:12;10.82;;;10.13;;
55465;SDS011;41329;41.594;23.810;2023-08-01T06:38:38;11.18;;;10.20;;
55465;SDS011;41329;41.594;23.810;2023-08-01T06:41:03;10.63;;;9.95;;
55465;SDS011;41329;41.594;23.810;2023-08-01T06:43:29;10.77;;;10.27;;
55465;SDS011;41329;41.594;23.810;2023-08-01T06:45:54;10.60;;;9.73;;
55465;SDS011;41329;41.594;23.810;2023-08-01T06:48:19;9.88;;;9.27;;
55465;SDS011;41329;41.594;23.810;2023-08-01T06:50:45;8.88;;;8.45;;
55465;SDS011;41329;41.594;23.810;2023-08-01T06:53:10;9.40;;;8.90;;
55465;SDS011;41329;41.594;23.810;2023-08-01T06:55:36;8.90;;;8.50;;
55465;SDS011;41329;41.594;23.810;2023-08-01T06:58:01;9.70;;;9.20;;
55465;SDS011;41329;41.594;23.810;2023-08-01T07:00:26;10.45;;;9.85;;
55465;SDS011;41329;41.594;23.810;2023-08-01T07:02:52;10.32;;;9.82;;
55465;SDS011;41329;41.594;23.810;2023-08-01T07:05:17;9.43;;;8.90;;
55465;SDS011;41329;41.594;23.810;2023-08-01T07:07:43;9.75;;;9.15;;
55465;SDS011;41329;41.594;23.810;2023-08-01T07:10:08;10.20;;;9.63;;
55465;SDS011;41329;41.594;23.810;2023-08-01T07:12:34;10.63;;;10.02;;
55465;SDS011;41329;41.594;23.810;2023-08-01T07:14:59;10.90;;;10.30;;
55465;SDS011;41329;41.594;23.810;2023-08-01T07:17:24;10.32;;;9.70;;
55465;SDS011;41329;41.594;23.810;2023-08-01T07:19:50;12.25;;;11.65;;
55465;SDS011;41329;41.594;23.810;2023-08-01T07:22:15;10.05;;;9.52;;
55465;SDS011;41329;41.594;23.810;2023-08-01T07:24:41;10.00;;;9.50;;
55465;SDS011;41329;41.594;23.810;2023-08-01T07:27:06;9.80;;;9.20;;
55465;SDS011;41329;41.594;23.810;2023-08-01T07:29:32;9.25;;;8.85;;
55465;SDS011;41329;41.594;23.810;2023-08-01T07:31:57;8.70;;;8.30;;
55465;SDS011;41329;41.594;23.810;2023-08-01T07:34:22;8.40;;;7.90;;
55465;SDS011;41329;41.594;23.810;2023-08-01T07:36:48;9.23;;;8.73;;
55465;SDS011;41329;41.594;23.810;2023-08-01T07:39:14;8.77;;;8.38;;
55465;SDS011;41329;41.594;23.810;2023-08-01T07:41:40;9.10;;;8.63;;
55465;SDS011;41329;41.594;23.810;2023-08-01T07:44:06;8.63;;;8.23;;
55465;SDS011;41329;41.594;23.810;2023-08-01T07:46:31;8.23;;;7.82;;
55465;SDS011;41329;41.594;23.810;2023-08-01T07:48:57;8.20;;;7.80;;
55465;SDS011;41329;41.594;23.810;2023-08-01T07:51:24;8.40;;;8.00;;
55465;SDS011;41329;41.594;23.810;2023-08-01T07:53:50;7.90;;;7.50;;
55465;SDS011;41329;41.594;23.810;2023-08-01T07:56:17;7.35;;;7.03;;
55465;SDS011;41329;41.594;23.810;2023-08-01T07:58:43;7.45;;;7.15;;
55465;SDS011;41329;41.594;23.810;2023-08-01T08:01:08;7.43;;;6.97;;
55465;SDS011;41329;41.594;23.810;2023-08-01T08:03:33;7.15;;;6.63;;
55465;SDS011;41329;41.594;23.810;2023-08-01T08:05:59;7.60;;;7.20;;
55465;SDS011;41329;41.594;23.810;2023-08-01T08:08:25;7.00;;;6.70;;
55465;SDS011;41329;41.594;23.810;2023-08-01T08:10:51;7.22;;;6.63;;
55465;SDS011;41329;41.594;23.810;2023-08-01T08:13:17;7.18;;;6.68;;
55465;SDS011;41329;41.594;23.810;2023-08-01T08:15:42;6.35;;;6.05;;
55465;SDS011;41329;41.594;23.810;2023-08-01T08:18:08;6.35;;;5.95;;
55465;SDS011;41329;41.594;23.810;2023-08-01T08:20:34;6.10;;;5.80;;
55465;SDS011;41329;41.594;23.810;2023-08-01T08:23:06;5.68;;;5.38;;
55465;SDS011;41329;41.594;23.810;2023-08-01T08:25:32;4.88;;;4.65;;
55465;SDS011;41329;41.594;23.810;2023-08-01T08:27:57;5.05;;;4.75;;
55465;SDS011;41329;41.594;23.810;2023-08-01T08:30:23;4.97;;;4.78;;
55465;SDS011;41329;41.594;23.810;2023-08-01T08:32:48;4.35;;;4.15;;
55465;SDS011;41329;41.594;23.810;2023-08-01T08:35:13;4.43;;;4.22;;
55465;SDS011;41329;41.594;23.810;2023-08-01T08:37:39;4.80;;;4.53;;
55465;SDS011;41329;41.594;23.810;2023-08-01T08:40:04;5.25;;;4.95;;
55465;SDS011;41329;41.594;23.810;2023-08-01T08:42:32;5.63;;;5.32;;
55465;SDS011;41329;41.594;23.810;2023-08-01T08:44:59;5.23;;;4.93;;
55465;SDS011;41329;41.594;23.810;2023-08-01T08:47:27;5.65;;;5.25;;
55465;SDS011;41329;41.594;23.810;2023-08-01T08:49:54;5.47;;;5.18;;
55465;SDS011;41329;41.594;23.810;2023-08-01T08:52:22;6.05;;;5.65;;
55465;SDS011;41329;41.594;23.810;2023-08-01T08:54:48;5.40;;;5.20;;
55465;SDS011;41329;41.594;23.810;2023-08-01T08:57:14;5.55;;;5.25;;
55465;SDS011;41329;41.594;23.810;2023-08-01T08:59:41;5.55;;;5.35;;
55465;SDS011;41329;41.594;23.810;2023-08-01T09:02:07;4.50;;;4.30;;
55465;SDS011;41329;41.594;23.810;2023-08-01T09:04:33;5.50;;;5.20;;
55465;SDS011;41329;41.594;23.810;2023-08-01T09:07:01;5.63;;;5.32;;
55465;SDS011;41329;41.594;23.810;2023-08-01T09:09:28;4.95;;;4.75;;
55465;SDS011;41329;41.594;23.810;2023-08-01T09:11:54;5.50;;;5.10;;
55465;SDS011;41329;41.594;23.810;2023-08-01T09:14:22;4.72;;;4.45;;
55465;SDS011;41329;41.594;23.810;2023-08-01T09:16:48;5.65;;;5.35;;
55465;SDS011;41329;41.594;23.810;2023-08-01T09:19:20;4.82;;;4.63;;
55465;SDS011;41329;41.594;23.810;2023-08-01T09:21:50;5.45;;;5.05;;
55465;SDS011;41329;41.594;23.810;2023-08-01T09:24:19;5.25;;;4.82;;
55465;SDS011;41329;41.594;23.810;2023-08-01T09:29:12;5.40;;;5.10;;
55465;SDS011;41329;41.594;23.810;2023-08-01T09:31:41;4.60;;;4.30;;
55465;SDS011;41329;41.594;23.810;2023-08-01T09:34:18;4.70;;;4.40;;
55465;SDS011;41329;41.594;23.810;2023-08-01T09:36:45;4.78;;;4.57;;
55465;SDS011;41329;41.594;23.810;2023-08-01T09:39:15;4.50;;;4.20;;
55465;SDS011;41329;41.594;23.810;2023-08-01T09:41:45;5.30;;;4.88;;
55465;SDS011;41329;41.594;23.810;2023-08-01T09:44:16;4.47;;;4.28;;
55465;SDS011;41329;41.594;23.810;2023-08-01T09:46:42;4.72;;;4.53;;
55465;SDS011;41329;41.594;23.810;2023-08-01T09:49:09;4.28;;;3.97;;
55465;SDS011;41329;41.594;23.810;2023-08-01T09:51:46;4.45;;;4.25;;
55465;SDS011;41329;41.594;23.810;2023-08-01T09:54:15;4.80;;;4.60;;
55465;SDS011;41329;41.594;23.810;2023-08-01T09:56:43;4.70;;;4.50;;
55465;SDS011;41329;41.594;23.810;2023-08-01T09:59:10;4.78;;;4.47;;
55465;SDS011;41329;41.594;23.810;2023-08-01T10:01:35;4.63;;;4.43;;
55465;SDS011;41329;41.594;23.810;2023-08-01T10:04:03;4.40;;;4.20;;
55465;SDS011;41329;41.594;23.810;2023-08-01T10:06:31;4.38;;;4.18;;
55465;SDS011;41329;41.594;23.810;2023-08-01T10:08:58;4.22;;;4.03;;
55465;SDS011;41329;41.594;23.810;2023-08-01T10:11:24;5.03;;;4.72;;
55465;SDS011;41329;41.594;23.810;2023-08-01T10:13:52;3.80;;;3.60;;
55465;SDS011;41329;41.594;23.810;2023-08-01T10:16:17;4.45;;;4.25;;
55465;SDS011;41329;41.594;23.810;2023-08-01T10:18:43;3.95;;;3.75;;
55465;SDS011;41329;41.594;23.810;2023-08-01T10:21:10;4.40;;;4.00;;
55465;SDS011;41329;41.594;23.810;2023-08-01T10:23:38;3.75;;;3.55;;
55465;SDS011;41329;41.594;23.810;2023-08-01T10:26:06;3.67;;;3.45;;
55465;SDS011;41329;41.594;23.810;2023-08-01T10:28:33;3.88;;;3.67;;
55465;SDS011;41329;41.594;23.810;2023-08-01T10:31:09;3.70;;;3.50;;
55465;SDS011;41329;41.594;23.810;2023-08-01T10:33:44;3.75;;;3.55;;
55465;SDS011;41329;41.594;23.810;2023-08-01T10:36:17;3.40;;;3.28;;
55465;SDS011;41329;41.594;23.810;2023-08-01T10:38:51;3.53;;;3.42;;
55465;SDS011;41329;41.594;23.810;2023-08-01T10:41:27;3.50;;;3.28;;
55465;SDS011;41329;41.594;23.810;2023-08-01T10:46:51;4.18;;;3.88;;
55465;SDS011;41329;41.594;23.810;2023-08-01T10:49:17;3.28;;;3.17;;
55465;SDS011;41329;41.594;23.810;2023-08-01T10:51:44;3.15;;;2.95;;
55465;SDS011;41329;41.594;23.810;2023-08-01T10:54:23;3.58;;;3.38;;
55465;SDS011;41329;41.594;23.810;2023-08-01T10:56:49;3.60;;;3.40;;
55465;SDS011;41329;41.594;23.810;2023-08-01T10:59:16;3.83;;;3.55;;
55465;SDS011;41329;41.594;23.810;2023-08-01T11:04:21;3.83;;;3.63;;
55465;SDS011;41329;41.594;23.810;2023-08-01T11:06:49;4.72;;;4.53;;
55465;SDS011;41329;41.594;23.810;2023-08-01T11:09:22;3.97;;;3.65;;
55465;SDS011;41329;41.594;23.810;2023-08-01T11:11:50;4.85;;;4.45;;
55465;SDS011;41329;41.594;23.810;2023-08-01T11:14:16;4.30;;;4.00;;
55465;SDS011;41329;41.594;23.810;2023-08-01T11:16:45;3.38;;;3.20;;
55465;SDS011;41329;41.594;23.810;2023-08-01T11:19:18;3.38;;;3.17;;
55465;SDS011;41329;41.594;23.810;2023-08-01T11:21:45;2.70;;;2.60;;
55465;SDS011;41329;41.594;23.810;2023-08-01T11:24:10;3.17;;;2.97;;
55465;SDS011;41329;41.594;23.810;2023-08-01T11:26:39;2.92;;;2.60;;
55465;SDS011;41329;41.594;23.810;2023-08-01T11:29:05;2.50;;;2.40;;
55465;SDS011;41329;41.594;23.810;2023-08-01T11:31:31;2.70;;;2.60;;
55465;SDS011;41329;41.594;23.810;2023-08-01T11:33:57;2.83;;;2.65;;
55465;SDS011;41329;41.594;23.810;2023-08-01T11:36:26;2.75;;;2.65;;
55465;SDS011;41329;41.594;23.810;2023-08-01T11:38:52;2.88;;;2.78;;
55465;SDS011;41329;41.594;23.810;2023-08-01T11:41:18;2.60;;;2.35;;
55465;SDS011;41329;41.594;23.810;2023-08-01T11:43:43;2.72;;;2.63;;
55465;SDS011;41329;41.594;23.810;2023-08-01T11:46:09;2.78;;;2.67;;
55465;SDS011;41329;41.594;23.810;2023-08-01T11:48:35;2.38;;;2.28;;
55465;SDS011;41329;41.594;23.810;2023-08-01T11:51:01;2.28;;;2.17;;
55465;SDS011;41329;41.594;23.810;2023-08-01T11:53:27;3.10;;;2.90;;
55465;SDS011;41329;41.594;23.810;2023-08-01T11:55:54;2.60;;;2.50;;
55465;SDS011;41329;41.594;23.810;2023-08-01T11:58:34;2.88;;;2.60;;
55465;SDS011;41329;41.594;23.810;2023-08-01T12:01:08;2.58;;;2.47;;
55465;SDS011;41329;41.594;23.810;2023-08-01T12:06:10;2.75;;;2.53;;
55465;SDS011;41329;41.594;23.810;2023-08-01T12:08:38;2.28;;;2.17;;
55465;SDS011;41329;41.594;23.810;2023-08-01T12:11:04;2.70;;;2.60;;
55465;SDS011;41329;41.594;23.810;2023-08-01T12:13:29;3.53;;;2.55;;
55465;SDS011;41329;41.594;23.810;2023-08-01T12:15:56;2.55;;;2.45;;
55465;SDS011;41329;41.594;23.810;2023-08-01T12:20:48;2.42;;;2.33;;
55465;SDS011;41329;41.594;23.810;2023-08-01T12:23:13;2.30;;;2.20;;
55465;SDS011;41329;41.594;23.810;2023-08-01T12:25:39;3.17;;;2.95;;
55465;SDS011;41329;41.594;23.810;2023-08-01T12:28:04;2.22;;;2.13;;
55465;SDS011;41329;41.594;23.810;2023-08-01T12:30:29;2.53;;;2.42;;
55465;SDS011;41329;41.594;23.810;2023-08-01T12:32:55;2.80;;;2.60;;
55465;SDS011;41329;41.594;23.810;2023-08-01T12:35:20;1.80;;;1.77;;
55465;SDS011;41329;41.594;23.810;2023-08-01T12:37:46;2.22;;;2.13;;
55465;SDS011;41329;41.594;23.810;2023-08-01T12:40:11;2.40;;;2.30;;
55465;SDS011;41329;41.594;23.810;2023-08-01T12:42:36;2.30;;;2.10;;
55465;SDS011;41329;41.594;23.810;2023-08-01T12:45:02;2.30;;;2.20;;
55465;SDS011;41329;41.594;23.810;2023-08-01T12:47:28;2.45;;;2.35;;
55465;SDS011;41329;41.594;23.810;2023-08-01T12:49:53;2.35;;;2.25;;
55465;SDS011;41329;41.594;23.810;2023-08-01T12:52:23;2.20;;;2.10;;
55465;SDS011;41329;41.594;23.810;2023-08-01T12:54:52;2.58;;;2.47;;
55465;SDS011;41329;41.594;23.810;2023-08-01T12:57:17;2.75;;;2.65;;
55465;SDS011;41329;41.594;23.810;2023-08-01T12:59:43;2.60;;;2.50;;
55465;SDS011;41329;41.594;23.810;2023-08-01T13:02:09;2.45;;;2.25;;
55465;SDS011;41329;41.594;23.810;2023-08-01T13:04:34;3.17;;;2.92;;
55465;SDS011;41329;41.594;23.810;2023-08-01T13:07:00;2.80;;;2.70;;
55465;SDS011;41329;41.594;23.810;2023-08-01T13:09:25;2.78;;;2.65;;
55465;SDS011;41329;41.594;23.810;2023-08-01T13:11:51;2.40;;;2.22;;
55465;SDS011;41329;41.594;23.810;2023-08-01T13:14:17;2.47;;;2.38;;
55465;SDS011;41329;41.594;23.810;2023-08-01T13:16:42;2.70;;;2.60;;
55465;SDS011;41329;41.594;23.810;2023-08-01T13:19:07;2.50;;;2.40;;
55465;SDS011;41329;41.594;23.810;2023-08-01T13:21:33;3.20;;;3.00;;
55465;SDS011;41329;41.594;23.810;2023-08-01T13:24:01;2.90;;;2.80;;
55465;SDS011;41329;41.594;23.810;2023-08-01T13:26:33;3.28;;;3.08;;
55465;SDS011;41329;41.594;23.810;2023-08-01T13:28:59;2.47;;;2.38;;
55465;SDS011;41329;41.594;23.810;2023-08-01T13:31:26;2.70;;;2.50;;
55465;SDS011;41329;41.594;23.810;2023-08-01T13:33:51;2.42;;;2.33;;
55465;SDS011;41329;41.594;23.810;2023-08-01T13:36:17;2.53;;;2.33;;
55465;SDS011;41329;41.594;23.810;2023-08-01T13:38:43;2.40;;;2.30;;
55465;SDS011;41329;41.594;23.810;2023-08-01T13:41:09;2.38;;;2.28;;
55465;SDS011;41329;41.594;23.810;2023-08-01T13:43:34;2.88;;;2.67;;
55465;SDS011;41329;41.594;23.810;2023-08-01T13:46:00;2.78;;;2.67;;
55465;SDS011;41329;41.594;23.810;2023-08-01T13:48:25;2.92;;;2.83;;
55465;SDS011;41329;41.594;23.810;2023-08-01T13:50:51;2.40;;;2.30;;
55465;SDS011;41329;41.594;23.810;2023-08-01T13:53:17;2.67;;;2.58;;
55465;SDS011;41329;41.594;23.810;2023-08-01T13:55:43;2.90;;;2.70;;
55465;SDS011;41329;41.594;23.810;2023-08-01T13:58:08;2.75;;;2.65;;
55465;SDS011;41329;41.594;23.810;2023-08-01T14:00:33;2.42;;;2.33;;
55465;SDS011;41329;41.594;23.810;2023-08-01T14:02:59;2.85;;;2.75;;
55465;SDS011;41329;41.594;23.810;2023-08-01T14:05:27;2.63;;;2.53;;
55465;SDS011;41329;41.594;23.810;2023-08-01T14:07:52;2.40;;;2.30;;
55465;SDS011;41329;41.594;23.810;2023-08-01T14:10:19;2.30;;;2.20;;
55465;SDS011;41329;41.594;23.810;2023-08-01T14:12:47;2.28;;;2.15;;
55465;SDS011;41329;41.594;23.810;2023-08-01T14:15:12;2.65;;;2.55;;
55465;SDS011;41329;41.594;23.810;2023-08-01T14:17:38;2.15;;;2.05;;
55465;SDS011;41329;41.594;23.810;2023-08-01T14:20:03;2.55;;;2.45;;
55465;SDS011;41329;41.594;23.810;2023-08-01T14:22:29;2.83;;;2.72;;
55465;SDS011;41329;41.594;23.810;2023-08-01T14:24:55;2.85;;;2.75;;
55465;SDS011;41329;41.594;23.810;2023-08-01T14:27:20;2.40;;;2.17;;
55465;SDS011;41329;41.594;23.810;2023-08-01T14:29:46;2.78;;;2.58;;
55465;SDS011;41329;41.594;23.810;2023-08-01T14:32:11;2.20;;;2.10;;
55465;SDS011;41329;41.594;23.810;2023-08-01T14:34:37;2.92;;;2.72;;